createdAt,value
2019-01-23T00:00:05.371Z,-1000.64
2019-01-23T00:01:05.559Z,-1001.77
2019-01-23T00:02:05.773Z,-999.43
2019-01-23T00:03:05.864Z,-1001.60
2019-01-23T00:04:06.051Z,-1002.83
2019-01-23T00:05:06.199Z,-1000.88
2019-01-23T00:06:06.370Z,-1001.38
2019-01-23T00:07:06.566Z,-1000.06
2019-01-23T00:08:06.711Z,-999.58
2019-01-23T00:09:06.879Z,-1002.12
2019-01-23T00:10:07.102Z,-1002.63
2019-01-23T00:11:07.198Z,-1001.13
2019-01-23T00:12:07.391Z,-997.61
2019-01-23T00:13:07.584Z,-998.96
2019-01-23T00:14:07.737Z,-1002.98
2019-01-23T00:15:07.903Z,-998.53
2019-01-23T00:16:08.090Z,-999.14
2019-01-23T00:17:08.274Z,-1000.47
2019-01-23T00:18:08.467Z,-999.17
2019-01-23T00:19:08.676Z,-999.63
2019-01-23T00:20:08.778Z,-997.93
2019-01-23T00:21:08.949Z,-997.54
2019-01-23T00:22:09.151Z,-996.61
2019-01-23T00:23:09.302Z,-999.85
2019-01-23T00:24:09.471Z,-1000.38
2019-01-23T00:25:09.607Z,-999.90
2019-01-23T00:26:09.793Z,-1002.21
2019-01-23T00:27:10.099Z,-1000.64
2019-01-23T00:28:10.160Z,-997.25
2019-01-23T00:29:10.327Z,-998.13
2019-01-23T00:30:10.461Z,-1000.07
2019-01-23T00:31:10.646Z,-1000.08
2019-01-23T00:32:10.835Z,-998.45
2019-01-23T00:33:11.003Z,-1000.14
2019-01-23T00:34:11.170Z,-995.69
2019-01-23T00:35:11.387Z,-999.13
2019-01-23T00:36:11.417Z,-996.51
2019-01-23T00:37:11.581Z,-1001.60
2019-01-23T00:38:11.770Z,-1001.51
2019-01-23T00:39:11.939Z,-1001.46
2019-01-23T00:40:12.065Z,-997.83
2019-01-23T00:41:12.227Z,-1000.59
2019-01-23T00:42:12.411Z,-1005.24
2019-01-23T00:43:12.862Z,-1001.81
2019-01-23T00:44:12.808Z,-1002.01
2019-01-23T00:45:12.956Z,-1001.04
2019-01-23T00:46:13.109Z,-1000.02
2019-01-23T00:47:13.313Z,-997.91
2019-01-23T00:48:13.476Z,-997.94
2019-01-23T00:49:13.646Z,-1000.73
2019-01-23T00:50:13.797Z,-999.00
2019-01-23T00:51:13.986Z,-998.72
2019-01-23T00:52:14.152Z,-996.94
2019-01-23T00:53:14.315Z,-1002.35
2019-01-23T00:54:14.487Z,-1002.36
2019-01-23T00:55:14.633Z,-1001.26
2019-01-23T00:56:14.809Z,-999.48
2019-01-23T00:57:14.980Z,-999.30
2019-01-23T00:58:15.156Z,-1001.94
2019-01-23T00:59:15.355Z,-1001.30
2019-01-23T01:00:15.611Z,-1004.45
2019-01-23T01:01:15.655Z,-999.48
2019-01-23T01:02:15.857Z,-1002.71
2019-01-23T01:03:16.039Z,-1005.01
2019-01-23T01:04:16.205Z,-1003.39
2019-01-23T01:05:16.363Z,-1001.83
2019-01-23T01:06:16.530Z,-998.29
2019-01-23T01:07:16.708Z,-995.88
2019-01-23T01:08:16.958Z,-1002.32
2019-01-23T01:09:17.045Z,-999.50
2019-01-23T01:10:17.202Z,-1000.00
2019-01-23T01:11:17.377Z,-1000.64
2019-01-23T01:12:17.564Z,-1000.37
2019-01-23T01:13:17.712Z,-999.24
2019-01-23T01:14:17.883Z,-999.29
2019-01-23T01:15:18.052Z,-1002.98
2019-01-23T01:16:18.273Z,-1002.70
2019-01-23T01:17:18.394Z,-1003.20
2019-01-23T01:18:18.544Z,-996.06
2019-01-23T01:19:18.719Z,-997.92
2019-01-23T01:20:18.902Z,-998.63
2019-01-23T01:21:19.157Z,-1000.63
2019-01-23T01:22:19.257Z,-999.54
2019-01-23T01:23:19.419Z,-1001.62
2019-01-23T01:24:19.617Z,-1003.01
2019-01-23T01:25:19.743Z,-1001.92
2019-01-23T01:26:19.935Z,-999.19
2019-01-23T01:27:20.353Z,-1000.38
2019-01-23T01:28:20.276Z,-998.51
2019-01-23T01:29:20.441Z,-1000.30
2019-01-23T01:30:20.632Z,-1000.02
2019-01-23T01:31:20.770Z,-998.86
2019-01-23T01:32:21.002Z,-998.52
2019-01-23T01:33:21.192Z,-1000.55
2019-01-23T01:34:21.291Z,-998.73
2019-01-23T01:35:21.475Z,-998.56
2019-01-23T01:36:21.611Z,-996.92
2019-01-23T01:37:21.816Z,-1000.36
2019-01-23T01:38:21.977Z,-998.77
2019-01-23T01:39:22.135Z,-999.40
2019-01-23T01:40:22.334Z,-998.20
2019-01-23T01:41:22.577Z,-1002.72
2019-01-23T01:42:22.655Z,-1001.81
2019-01-23T01:43:22.818Z,-1001.52
2019-01-23T01:44:22.976Z,-1001.85
2019-01-23T01:45:23.162Z,-997.62
2019-01-23T01:46:23.307Z,-999.51
2019-01-23T01:47:23.483Z,-1000.19
2019-01-23T01:48:23.664Z,-999.18
2019-01-23T01:49:23.942Z,-999.93
2019-01-23T01:50:23.999Z,-1003.83
2019-01-23T01:51:24.136Z,-999.56
2019-01-23T01:52:24.323Z,-1000.56
2019-01-23T01:53:24.505Z,-997.28
2019-01-23T01:54:24.643Z,-998.82
2019-01-23T01:55:24.844Z,-998.62
2019-01-23T01:56:24.995Z,-995.97
2019-01-23T01:57:25.202Z,-997.98
2019-01-23T01:58:25.327Z,-1000.06
2019-01-23T01:59:25.514Z,-1002.89
2019-01-23T02:00:25.694Z,-999.94
2019-01-23T02:01:25.848Z,-998.13
2019-01-23T02:02:26.042Z,-994.66
2019-01-23T02:03:26.200Z,-1001.97
2019-01-23T02:04:26.343Z,-999.56
2019-01-23T02:05:26.601Z,-1001.35
2019-01-23T02:06:26.668Z,-1000.80
2019-01-23T02:07:26.860Z,-999.60
2019-01-23T02:08:27.011Z,-995.92
2019-01-23T02:09:27.180Z,-998.87
2019-01-23T02:10:27.378Z,-999.39
2019-01-23T02:11:27.544Z,-997.02
2019-01-23T02:12:27.728Z,-999.67
2019-01-23T02:13:27.905Z,-999.51
2019-01-23T02:14:28.116Z,-998.97
2019-01-23T02:15:28.237Z,-1000.24
2019-01-23T02:16:28.389Z,-1000.05
2019-01-23T02:17:28.576Z,-1001.80
2019-01-23T02:18:28.725Z,-1001.87
2019-01-23T02:19:28.914Z,-998.15
2019-01-23T02:20:29.081Z,-997.53
2019-01-23T02:21:29.227Z,-998.16
2019-01-23T02:22:29.512Z,-995.07
2019-01-23T02:23:29.576Z,-996.00
2019-01-23T02:24:29.760Z,-994.06
2019-01-23T02:25:29.910Z,-992.31
2019-01-23T02:26:30.078Z,-997.29
2019-01-23T02:27:30.269Z,-994.99
2019-01-23T02:28:30.460Z,-1001.38
2019-01-23T02:29:30.647Z,-1000.36
2019-01-23T02:30:30.882Z,-999.87
2019-01-23T02:31:30.951Z,-1001.19
2019-01-23T02:32:31.136Z,-993.20
2019-01-23T02:33:31.326Z,-999.42
2019-01-23T02:34:31.487Z,-998.41
2019-01-23T02:35:31.665Z,-1002.10
2019-01-23T02:36:31.813Z,-999.37
2019-01-23T02:37:31.981Z,-995.39
2019-01-23T02:38:32.244Z,-995.64
2019-01-23T02:39:32.300Z,-996.31
2019-01-23T02:40:32.492Z,-992.34
2019-01-23T02:41:32.646Z,-995.38
2019-01-23T02:42:32.816Z,-999.45
2019-01-23T02:43:32.994Z,-999.57
2019-01-23T02:44:33.173Z,-999.22
2019-01-23T02:45:33.349Z,-997.04
2019-01-23T02:46:33.538Z,-997.03
2019-01-23T02:47:33.715Z,-998.23
2019-01-23T02:48:33.984Z,-996.97
2019-01-23T02:49:34.043Z,-997.34
2019-01-23T02:50:34.202Z,-999.35
2019-01-23T02:51:34.356Z,-1000.28
2019-01-23T02:52:34.524Z,-997.10
2019-01-23T02:53:34.702Z,-945.44
2019-01-23T02:54:34.875Z,-944.97
2019-01-23T02:55:35.165Z,-946.70
2019-01-23T02:56:35.201Z,-945.81
2019-01-23T02:57:35.370Z,-947.61
2019-01-23T02:58:35.565Z,-945.78
2019-01-23T02:59:35.698Z,-945.28
2019-01-23T03:00:35.896Z,-941.63
2019-01-23T03:01:36.046Z,-943.81
2019-01-23T03:02:36.216Z,-946.17
2019-01-23T03:03:36.493Z,-943.75
2019-01-23T03:04:36.549Z,-945.28
2019-01-23T03:05:36.735Z,-942.94
2019-01-23T03:06:36.883Z,-940.96
2019-01-23T03:07:37.298Z,-945.40
2019-01-23T03:08:37.250Z,-944.95
2019-01-23T03:09:37.498Z,-941.01
2019-01-23T03:10:37.570Z,-944.88
2019-01-23T03:11:37.819Z,-941.88
2019-01-23T03:12:37.888Z,-943.69
2019-01-23T03:13:38.079Z,-947.19
2019-01-23T03:14:38.262Z,-944.10
2019-01-23T03:15:38.416Z,-943.25
2019-01-23T03:16:38.557Z,-940.53
2019-01-23T03:17:38.740Z,-941.65
2019-01-23T03:18:38.925Z,-939.56
2019-01-23T03:19:39.148Z,-940.49
2019-01-23T03:20:39.242Z,-943.60
2019-01-23T03:21:39.382Z,-944.44
2019-01-23T03:22:39.548Z,-942.46
2019-01-23T03:23:39.750Z,-945.13
2019-01-23T03:24:39.934Z,-938.48
2019-01-23T03:25:40.100Z,-937.06
2019-01-23T03:26:40.251Z,-944.79
2019-01-23T03:27:40.445Z,-941.98
2019-01-23T03:28:40.637Z,-944.41
2019-01-23T03:29:40.768Z,-942.66
2019-01-23T03:30:40.953Z,-942.17
2019-01-23T03:31:41.126Z,-946.14
2019-01-23T03:32:41.296Z,-943.87
2019-01-23T03:33:41.473Z,-941.28
2019-01-23T03:34:41.629Z,-940.31
2019-01-23T03:35:41.808Z,-944.52
2019-01-23T03:36:42.111Z,-945.02
2019-01-23T03:37:42.141Z,-943.90
2019-01-23T03:38:42.342Z,-944.39
2019-01-23T03:39:42.491Z,-946.40
2019-01-23T03:40:42.670Z,-944.67
2019-01-23T03:41:42.842Z,-938.81
2019-01-23T03:42:42.991Z,-940.88
2019-01-23T03:43:43.184Z,-917.02
2019-01-23T03:44:43.451Z,-933.54
2019-01-23T03:45:43.506Z,-939.80
2019-01-23T03:46:43.700Z,-939.99
2019-01-23T03:47:43.833Z,-941.42
2019-01-23T03:48:44.034Z,-943.68
2019-01-23T03:49:44.169Z,-940.33
2019-01-23T03:50:44.343Z,-944.40
2019-01-23T03:51:44.530Z,-945.39
2019-01-23T03:52:44.721Z,-944.25
2019-01-23T03:53:44.866Z,-948.84
2019-01-23T03:54:45.005Z,-943.11
2019-01-23T03:55:45.161Z,-944.97
2019-01-23T03:56:45.359Z,-945.66
2019-01-23T03:57:45.532Z,-945.24
2019-01-23T03:58:45.701Z,-946.27
2019-01-23T03:59:45.847Z,-948.41
2019-01-23T04:00:46.057Z,-948.49
2019-01-23T04:01:46.181Z,-947.06
2019-01-23T04:02:46.380Z,-946.57
2019-01-23T04:03:46.562Z,-941.38
2019-01-23T04:04:46.697Z,-942.18
2019-01-23T04:05:46.875Z,-945.35
2019-01-23T04:06:47.065Z,-948.03
2019-01-23T04:07:47.210Z,-941.63
2019-01-23T04:08:47.428Z,-944.20
2019-01-23T04:09:47.638Z,-938.93
2019-01-23T04:10:47.717Z,-944.69
2019-01-23T04:11:47.891Z,-949.45
2019-01-23T04:12:48.099Z,-950.41
2019-01-23T04:13:48.257Z,-945.92
2019-01-23T04:14:48.410Z,-948.12
2019-01-23T04:15:48.580Z,-944.71
2019-01-23T04:16:48.782Z,-943.33
2019-01-23T04:17:49.032Z,-948.99
2019-01-23T04:18:49.108Z,-942.98
2019-01-23T04:19:49.261Z,-942.72
2019-01-23T04:20:49.426Z,-948.12
2019-01-23T04:21:49.610Z,-947.26
2019-01-23T04:22:49.758Z,-947.52
2019-01-23T04:23:53.913Z,-946.09
2019-01-23T04:24:50.119Z,-942.99
2019-01-23T04:25:50.401Z,-940.24
2019-01-23T04:26:50.459Z,-945.15
2019-01-23T04:27:50.639Z,-946.40
2019-01-23T04:28:51.384Z,-942.27
2019-01-23T04:29:50.953Z,-950.27
2019-01-23T04:30:51.122Z,-945.50
2019-01-23T04:31:51.313Z,-949.68
2019-01-23T04:32:51.476Z,-943.25
2019-01-23T04:33:51.681Z,-946.62
2019-01-23T04:34:51.793Z,-949.15
2019-01-23T04:35:51.972Z,-943.15
2019-01-23T04:36:52.144Z,-942.60
2019-01-23T04:37:52.299Z,-947.01
2019-01-23T04:38:52.480Z,-938.93
2019-01-23T04:39:52.641Z,-940.74
2019-01-23T04:40:52.782Z,-950.20
2019-01-23T04:41:53.028Z,-951.66
2019-01-23T04:42:53.175Z,-941.14
2019-01-23T04:43:53.343Z,-945.22
2019-01-23T04:44:53.558Z,-945.06
2019-01-23T04:45:53.681Z,-942.68
2019-01-23T04:46:53.856Z,-944.97
2019-01-23T04:47:54.027Z,-942.78
2019-01-23T04:48:54.196Z,-940.83
2019-01-23T04:49:54.441Z,-938.15
2019-01-23T04:50:54.625Z,-937.01
2019-01-23T04:51:54.742Z,-939.52
2019-01-23T04:52:54.907Z,-944.35
2019-01-23T04:53:55.076Z,-936.42
2019-01-23T04:54:55.276Z,-938.02
2019-01-23T04:55:55.423Z,-936.50
2019-01-23T04:56:55.600Z,-935.63
2019-01-23T04:57:55.737Z,-934.80
2019-01-23T04:58:56.039Z,-939.31
2019-01-23T04:59:56.112Z,-945.28
2019-01-23T05:00:56.250Z,-945.37
2019-01-23T05:01:56.444Z,-945.99
2019-01-23T05:02:56.582Z,-948.44
2019-01-23T05:03:56.782Z,-940.13
2019-01-23T05:04:56.977Z,-946.77
2019-01-23T05:05:57.112Z,-948.09
2019-01-23T05:06:57.349Z,-937.26
2019-01-23T05:07:57.419Z,-942.95
2019-01-23T05:08:57.605Z,-944.32
2019-01-23T05:09:57.799Z,-942.34
2019-01-23T05:10:57.944Z,-937.63
2019-01-23T05:11:58.203Z,-937.93
2019-01-23T05:12:58.285Z,-943.75
2019-01-23T05:13:58.442Z,-942.72
2019-01-23T05:14:58.848Z,-946.00
2019-01-23T05:15:58.795Z,-938.18
2019-01-23T05:16:58.977Z,-941.19
2019-01-23T05:17:59.137Z,-940.65
2019-01-23T05:18:59.294Z,-938.07
2019-01-23T05:19:59.484Z,-945.04
2019-01-23T05:20:59.631Z,-934.72
2019-01-23T05:21:59.842Z,-940.18
2019-01-23T05:23:00.060Z,-935.47
2019-01-23T05:24:00.201Z,-939.21
2019-01-23T05:25:00.363Z,-939.78
2019-01-23T05:26:00.508Z,-939.96
2019-01-23T05:27:00.706Z,-939.73
2019-01-23T05:28:00.875Z,-936.45
2019-01-23T05:29:01.023Z,-938.49
2019-01-23T05:30:01.215Z,-940.24
2019-01-23T05:31:01.369Z,-936.65
2019-01-23T05:32:02.721Z,-942.34
2019-01-23T05:33:01.739Z,-939.25
2019-01-23T05:34:01.886Z,-937.07
2019-01-23T05:35:02.091Z,-941.28
2019-01-23T05:36:02.220Z,-928.34
2019-01-23T05:37:02.412Z,-930.74
2019-01-23T05:38:02.575Z,-937.34
2019-01-23T05:39:02.756Z,-936.87
2019-01-23T05:40:03.082Z,-940.29
2019-01-23T05:41:03.063Z,-937.07
2019-01-23T05:42:03.281Z,-937.66
2019-01-23T05:43:03.417Z,-936.26
2019-01-23T05:44:03.585Z,-937.21
2019-01-23T05:45:03.796Z,-939.49
2019-01-23T05:46:03.931Z,-935.86
2019-01-23T05:47:04.081Z,-933.29
2019-01-23T05:48:04.319Z,-993.76
2019-01-23T05:49:04.427Z,-994.76
2019-01-23T05:50:04.609Z,-993.47
2019-01-23T05:51:04.764Z,-994.27
2019-01-23T05:52:04.929Z,-994.75
2019-01-23T05:53:05.116Z,-993.21
2019-01-23T05:54:05.289Z,-994.58
2019-01-23T05:55:05.505Z,-984.55
2019-01-23T05:56:05.695Z,-989.13
2019-01-23T05:57:05.780Z,-988.00
2019-01-23T05:58:05.959Z,-980.58
2019-01-23T05:59:06.150Z,-983.93
2019-01-23T06:00:06.355Z,-988.06
2019-01-23T06:01:06.484Z,-968.78
2019-01-23T06:02:06.665Z,-989.36
2019-01-23T06:03:06.866Z,-993.56
2019-01-23T06:04:07.062Z,-984.13
2019-01-23T06:05:07.228Z,-984.89
2019-01-23T06:06:07.334Z,-980.76
2019-01-23T06:07:07.494Z,-979.72
2019-01-23T06:08:07.686Z,-992.01
2019-01-23T06:09:07.866Z,-996.31
2019-01-23T06:10:08.012Z,-996.31
2019-01-23T06:11:08.184Z,-986.62
2019-01-23T06:12:08.348Z,-984.77
2019-01-23T06:13:08.678Z,-986.08
2019-01-23T06:14:08.688Z,-986.98
2019-01-23T06:15:08.850Z,-993.18
2019-01-23T06:16:09.023Z,-992.62
2019-01-23T06:17:09.192Z,-985.41
2019-01-23T06:18:09.380Z,-992.28
2019-01-23T06:19:09.565Z,-982.71
2019-01-23T06:20:09.724Z,-991.82
2019-01-23T06:21:09.915Z,-993.04
2019-01-23T06:22:10.024Z,-989.13
2019-01-23T06:23:10.219Z,-981.64
2019-01-23T06:24:10.385Z,-977.33
2019-01-23T06:25:10.785Z,-987.94
2019-01-23T06:26:10.696Z,-989.31
2019-01-23T06:27:10.885Z,-987.38
2019-01-23T06:28:11.077Z,-978.14
2019-01-23T06:29:11.324Z,-989.69
2019-01-23T06:30:11.403Z,-988.02
2019-01-23T06:31:11.562Z,-984.41
2019-01-23T06:32:11.712Z,-985.00
2019-01-23T06:33:11.938Z,-977.02
2019-01-23T06:34:12.093Z,-982.93
2019-01-23T06:35:12.267Z,-978.95
2019-01-23T06:36:12.411Z,-982.65
2019-01-23T06:37:12.614Z,-967.75
2019-01-23T06:38:12.768Z,-970.33
2019-01-23T06:39:12.926Z,-974.66
2019-01-23T06:40:13.146Z,-974.63
2019-01-23T06:41:13.264Z,-982.69
2019-01-23T06:42:13.433Z,-982.45
2019-01-23T06:43:13.627Z,-982.95
2019-01-23T06:44:13.761Z,-984.64
2019-01-23T06:45:14.035Z,-981.49
2019-01-23T06:46:14.229Z,-983.13
2019-01-23T06:47:14.311Z,-988.96
2019-01-23T06:48:14.496Z,-988.21
2019-01-23T06:49:14.644Z,-984.75
2019-01-23T06:50:14.818Z,-985.22
2019-01-23T06:51:15.000Z,-982.48
2019-01-23T06:52:15.206Z,-980.18
2019-01-23T06:53:15.339Z,-981.36
2019-01-23T06:54:15.638Z,-979.00
2019-01-23T06:55:16.384Z,-980.15
2019-01-23T06:56:15.850Z,-980.20
2019-01-23T06:57:16.018Z,-983.68
2019-01-23T06:58:16.214Z,-977.78
2019-01-23T06:59:16.368Z,-974.05
2019-01-23T07:00:17.160Z,-979.32
2019-01-23T07:01:16.746Z,-980.89
2019-01-23T07:02:16.941Z,-976.21
2019-01-23T07:03:17.058Z,-974.20
2019-01-23T07:04:17.358Z,-981.02
2019-01-23T07:05:17.372Z,-983.81
2019-01-23T07:06:17.569Z,-987.01
2019-01-23T07:07:17.724Z,-982.60
2019-01-23T07:08:17.909Z,-983.21
2019-01-23T07:09:18.080Z,-983.48
2019-01-23T07:10:18.314Z,-982.91
2019-01-23T07:11:18.401Z,-979.63
2019-01-23T07:12:18.559Z,-979.08
2019-01-23T07:13:18.743Z,-982.12
2019-01-23T07:14:18.891Z,-976.19
2019-01-23T07:15:19.066Z,-982.31
2019-01-23T07:16:19.280Z,-969.16
2019-01-23T07:17:19.395Z,-974.91
2019-01-23T07:18:19.628Z,-977.11
2019-01-23T07:19:19.800Z,-974.81
2019-01-23T07:20:19.936Z,-981.76
2019-01-23T07:21:20.136Z,-978.82
2019-01-23T07:22:20.257Z,-981.30
2019-01-23T07:23:20.459Z,-978.07
2019-01-23T07:24:20.679Z,-979.69
2019-01-23T07:25:20.793Z,-984.48
2019-01-23T07:26:21.026Z,-978.35
2019-01-23T07:27:21.216Z,-976.77
2019-01-23T07:28:21.320Z,-972.77
2019-01-23T07:29:21.490Z,-974.39
2019-01-23T07:30:24.334Z,-979.40
2019-01-23T07:31:21.826Z,-968.67
2019-01-23T07:32:21.976Z,-972.37
2019-01-23T07:33:22.148Z,-969.73
2019-01-23T07:34:22.342Z,-970.49
2019-01-23T07:35:22.634Z,-973.98
2019-01-23T07:36:23.481Z,-969.33
2019-01-23T07:37:22.828Z,-969.74
2019-01-23T07:38:23.010Z,-969.81
2019-01-23T07:39:23.208Z,-972.27
2019-01-23T07:40:23.352Z,-977.10
2019-01-23T07:41:23.535Z,-966.78
2019-01-23T07:42:23.684Z,-973.40
2019-01-23T07:43:23.959Z,-978.06
2019-01-23T07:44:23.993Z,-974.34
2019-01-23T07:45:24.180Z,-980.07
2019-01-23T07:46:24.383Z,-977.75
2019-01-23T07:47:24.516Z,-984.69
2019-01-23T07:48:24.709Z,-975.53
2019-01-23T07:49:24.855Z,-982.40
2019-01-23T07:50:25.042Z,-977.74
2019-01-23T07:51:25.276Z,-969.11
2019-01-23T07:52:25.357Z,-964.79
2019-01-23T07:53:25.546Z,-971.22
2019-01-23T07:54:25.713Z,-974.86
2019-01-23T07:55:25.883Z,-971.73
2019-01-23T07:56:26.053Z,-978.55
2019-01-23T07:57:26.216Z,-975.25
2019-01-23T07:58:26.386Z,-979.25
2019-01-23T07:59:26.580Z,-974.11
2019-01-23T08:00:31.232Z,-981.92
2019-01-23T08:01:26.916Z,-971.91
2019-01-23T08:02:27.331Z,-974.52
2019-01-23T08:03:27.260Z,-970.17
2019-01-23T08:04:27.415Z,-964.51
2019-01-23T08:05:27.589Z,-975.33
2019-01-23T08:06:27.789Z,-971.06
2019-01-23T08:07:27.925Z,-963.28
2019-01-23T08:08:28.223Z,-960.62
2019-01-23T08:09:28.291Z,-971.92
2019-01-23T08:10:28.442Z,-972.03
2019-01-23T08:11:28.654Z,-970.48
2019-01-23T08:12:28.761Z,-968.26
2019-01-23T08:13:28.942Z,-967.54
2019-01-23T08:14:29.155Z,-970.75
2019-01-23T08:15:29.292Z,-973.29
2019-01-23T08:16:29.582Z,-966.84
2019-01-23T08:17:32.715Z,-968.34
2019-01-23T08:18:29.822Z,-963.93
2019-01-23T08:19:30.007Z,-970.86
2019-01-23T08:20:30.142Z,-973.34
2019-01-23T08:21:30.332Z,-972.38
2019-01-23T08:22:30.492Z,-968.78
2019-01-23T08:23:30.643Z,-969.95
2019-01-23T08:24:30.890Z,-975.63
2019-01-23T08:25:30.972Z,-973.77
2019-01-23T08:26:31.174Z,-970.81
2019-01-23T08:27:31.317Z,-979.09
2019-01-23T08:28:31.498Z,-972.66
2019-01-23T08:29:31.761Z,-972.91
2019-01-23T08:30:38.307Z,-976.18
2019-01-23T08:31:33.022Z,-978.22
2019-01-23T08:32:32.214Z,-973.34
2019-01-23T08:33:32.319Z,-971.63
2019-01-23T08:34:32.626Z,-971.85
2019-01-23T08:35:32.668Z,-973.50
2019-01-23T08:36:32.860Z,-960.08
2019-01-23T08:37:33.013Z,-972.16
2019-01-23T08:38:33.197Z,-978.06
2019-01-23T08:39:33.409Z,-977.12
2019-01-23T08:40:33.586Z,-974.46
2019-01-23T08:41:33.787Z,-976.56
2019-01-23T08:42:33.863Z,-972.47
2019-01-23T08:43:34.019Z,-974.97
2019-01-23T08:44:34.277Z,-977.19
2019-01-23T08:45:34.370Z,-969.53
2019-01-23T08:46:34.552Z,-977.48
2019-01-23T08:47:34.705Z,-972.84
2019-01-23T08:48:34.904Z,-970.58
2019-01-23T08:49:35.265Z,-967.62
2019-01-23T08:50:35.255Z,-969.05
2019-01-23T08:51:35.443Z,-975.44
2019-01-23T08:52:35.592Z,-972.81
2019-01-23T08:53:35.783Z,-971.14
2019-01-23T08:54:35.982Z,-966.60
2019-01-23T08:55:36.112Z,-970.51
2019-01-23T08:56:36.317Z,-966.06
2019-01-23T08:57:36.547Z,-965.10
2019-01-23T08:58:36.605Z,-973.20
2019-01-23T08:59:36.817Z,-966.00
2019-01-23T09:00:36.948Z,-973.80
2019-01-23T09:01:37.133Z,-972.88
2019-01-23T09:02:37.274Z,-972.41
2019-01-23T09:03:37.444Z,-972.53
2019-01-23T09:04:37.646Z,-965.69
2019-01-23T09:05:37.819Z,-970.35
2019-01-23T09:06:37.960Z,-964.89
2019-01-23T09:07:38.146Z,-969.60
2019-01-23T09:08:38.309Z,-969.46
2019-01-23T09:09:38.494Z,-970.79
2019-01-23T09:10:38.661Z,-972.70
2019-01-23T09:11:38.987Z,-972.72
2019-01-23T09:12:39.024Z,-971.41
2019-01-23T09:13:39.447Z,-974.47
2019-01-23T09:14:39.371Z,-971.99
2019-01-23T09:15:39.513Z,-962.23
2019-01-23T09:16:39.710Z,-968.90
2019-01-23T09:17:39.899Z,-966.56
2019-01-23T09:18:40.042Z,-961.58
2019-01-23T09:19:40.259Z,-967.24
2019-01-23T09:20:40.366Z,-965.77
2019-01-23T09:21:40.560Z,-964.17
2019-01-23T09:22:40.899Z,-969.67
2019-01-23T09:23:40.906Z,-966.86
2019-01-23T09:24:41.087Z,-965.93
2019-01-23T09:25:41.241Z,-972.71
2019-01-23T09:26:41.421Z,-965.13
2019-01-23T09:27:41.593Z,-966.45
2019-01-23T09:28:41.745Z,-966.93
2019-01-23T09:29:41.927Z,-960.68
2019-01-23T09:30:42.199Z,-961.19
2019-01-23T09:31:42.279Z,-959.81
2019-01-23T09:32:42.456Z,-959.79
2019-01-23T09:33:42.590Z,-963.63
2019-01-23T09:34:42.805Z,-971.36
2019-01-23T09:35:42.921Z,-965.47
2019-01-23T09:36:43.094Z,-966.63
2019-01-23T09:37:43.293Z,-964.48
2019-01-23T09:38:43.722Z,-963.92
2019-01-23T09:39:43.625Z,-960.71
2019-01-23T09:40:43.769Z,-962.00
2019-01-23T09:41:43.914Z,-963.35
2019-01-23T09:42:44.122Z,-966.82
2019-01-23T09:43:44.274Z,-968.92
2019-01-23T09:44:44.480Z,-966.97
2019-01-23T09:45:44.610Z,-967.49
2019-01-23T09:46:44.830Z,-968.83
2019-01-23T09:47:44.931Z,-967.63
2019-01-23T09:48:45.105Z,-965.09
2019-01-23T09:49:45.306Z,-969.32
2019-01-23T09:50:45.442Z,-966.29
2019-01-23T09:51:45.612Z,-968.65
2019-01-23T09:52:45.803Z,-963.73
2019-01-23T09:53:45.943Z,-967.68
2019-01-23T09:54:46.203Z,-963.16
2019-01-23T09:55:46.887Z,-964.85
2019-01-23T09:56:46.464Z,-964.78
2019-01-23T09:57:46.652Z,-964.67
2019-01-23T09:58:46.792Z,-965.56
2019-01-23T09:59:47.007Z,-965.41
2019-01-23T10:00:47.153Z,-962.88
2019-01-23T10:01:47.321Z,-910.97
2019-01-23T10:02:47.523Z,-966.62
2019-01-23T10:03:47.754Z,-963.03
2019-01-23T10:04:47.868Z,-964.10
2019-01-23T10:05:47.999Z,-963.31
2019-01-23T10:06:48.167Z,-964.59
2019-01-23T10:07:48.348Z,-964.08
2019-01-23T10:08:48.504Z,-957.38
2019-01-23T10:09:48.692Z,-960.72
2019-01-23T10:10:48.846Z,-961.99
2019-01-23T10:11:49.117Z,-963.97
2019-01-23T10:12:49.207Z,-962.98
2019-01-23T10:13:49.359Z,-969.19
2019-01-23T10:14:49.530Z,-961.24
2019-01-23T10:15:49.697Z,-958.95
2019-01-23T10:16:49.881Z,-964.23
2019-01-23T10:17:50.091Z,-962.61
2019-01-23T10:18:55.867Z,-964.62
2019-01-23T10:19:52.671Z,-962.79
2019-01-23T10:20:50.522Z,-963.56
2019-01-23T10:21:50.733Z,-960.83
2019-01-23T10:22:50.898Z,-964.15
2019-01-23T10:23:55.409Z,-972.74
2019-01-23T10:24:51.255Z,-969.78
2019-01-23T10:25:51.395Z,-960.56
2019-01-23T10:26:51.560Z,-963.15
2019-01-23T10:27:51.777Z,-965.12
2019-01-23T10:28:51.874Z,-972.27
2019-01-23T10:29:52.066Z,-966.66
2019-01-23T10:30:52.214Z,-938.11
2019-01-23T10:31:52.395Z,-940.38
2019-01-23T10:32:52.579Z,-939.57
2019-01-23T10:33:52.712Z,-937.74
2019-01-23T10:34:52.911Z,-961.44
2019-01-23T10:35:53.137Z,-970.57
2019-01-23T10:36:53.303Z,-898.62
2019-01-23T10:37:53.431Z,-910.61
2019-01-23T10:38:53.584Z,-914.79
2019-01-23T10:39:53.759Z,-909.18
2019-01-23T10:40:53.953Z,-906.40
2019-01-23T10:41:54.089Z,-910.06
2019-01-23T10:42:54.284Z,-916.66
2019-01-23T10:43:54.461Z,-913.01
2019-01-23T10:44:54.722Z,-918.43
2019-01-23T10:45:54.810Z,-914.81
2019-01-23T10:46:54.943Z,-919.86
2019-01-23T10:47:56.121Z,-919.33
2019-01-23T10:48:55.255Z,-922.26
2019-01-23T10:49:55.423Z,-916.33
2019-01-23T10:50:55.629Z,-918.73
2019-01-23T10:51:55.776Z,-917.50
2019-01-23T10:52:56.044Z,-919.12
2019-01-23T10:53:56.099Z,-918.79
2019-01-23T10:54:56.276Z,-915.55
2019-01-23T10:55:56.474Z,-908.72
2019-01-23T10:56:56.627Z,-913.60
2019-01-23T10:57:56.818Z,-913.11
2019-01-23T10:58:56.986Z,-919.84
2019-01-23T10:59:57.114Z,-917.86
2019-01-23T11:00:57.352Z,-920.86
2019-01-23T11:01:57.457Z,-920.96
2019-01-23T11:02:57.654Z,-918.11
2019-01-23T11:03:57.819Z,-911.22
2019-01-23T11:04:57.978Z,-913.59
2019-01-23T11:05:58.179Z,-914.43
2019-01-23T11:06:58.350Z,-915.50
2019-01-23T11:07:58.491Z,-912.06
2019-01-23T11:08:58.701Z,-910.57
2019-01-23T11:09:58.792Z,-913.49
2019-01-23T11:10:59.001Z,-918.06
2019-01-23T11:11:59.125Z,-917.80
2019-01-23T11:12:59.328Z,-917.92
2019-01-23T11:13:59.504Z,-912.86
2019-01-23T11:14:59.661Z,-919.80
2019-01-23T11:15:59.849Z,-909.18
2019-01-23T11:17:00.015Z,-903.39
2019-01-23T11:18:00.453Z,-912.60
2019-01-23T11:19:00.346Z,-914.72
2019-01-23T11:20:00.506Z,-913.04
2019-01-23T11:21:00.705Z,-912.38
2019-01-23T11:22:00.841Z,-914.67
2019-01-23T11:23:01.033Z,-916.63
2019-01-23T11:24:01.166Z,-917.03
2019-01-23T11:25:01.363Z,-913.04
2019-01-23T11:26:01.675Z,-917.24
2019-01-23T11:27:01.682Z,-913.14
2019-01-23T11:28:01.854Z,-917.14
2019-01-23T11:29:02.025Z,-923.20
2019-01-23T11:30:02.223Z,-920.58
2019-01-23T11:31:02.422Z,-919.22
2019-01-23T11:32:02.556Z,-917.60
2019-01-23T11:33:02.715Z,-923.47
2019-01-23T11:34:02.935Z,-909.92
2019-01-23T11:35:03.026Z,-914.50
2019-01-23T11:36:03.238Z,-913.66
2019-01-23T11:37:03.381Z,-908.30
2019-01-23T11:38:03.553Z,-909.42
2019-01-23T11:39:03.736Z,-918.83
2019-01-23T11:40:03.917Z,-917.91
2019-01-23T11:41:04.114Z,-911.73
2019-01-23T11:42:04.295Z,-911.66
2019-01-23T11:43:04.391Z,-914.08
2019-01-23T11:44:04.588Z,-912.99
2019-01-23T11:45:04.754Z,-913.18
2019-01-23T11:46:04.954Z,-913.69
2019-01-23T11:47:05.085Z,-913.66
2019-01-23T11:48:05.258Z,-915.70
2019-01-23T11:49:05.449Z,-921.92
2019-01-23T11:50:05.647Z,-926.05
2019-01-23T11:51:05.811Z,-924.90
2019-01-23T11:52:05.934Z,-918.62
2019-01-23T11:53:06.103Z,-923.30
2019-01-23T11:54:06.289Z,-917.68
2019-01-23T11:55:06.451Z,-925.31
2019-01-23T11:56:06.622Z,-920.95
2019-01-23T11:57:06.762Z,-921.97
2019-01-23T11:58:06.963Z,-922.48
2019-01-23T11:59:07.267Z,-918.44
2019-01-23T12:00:07.331Z,-922.87
2019-01-23T12:01:07.523Z,-921.36
2019-01-23T12:02:07.618Z,-922.58
2019-01-23T12:03:07.801Z,-919.99
2019-01-23T12:04:07.988Z,-925.33
2019-01-23T12:05:08.136Z,-918.39